This is the latest recevied weather packets stored in our database for station/object AA7DG. If no packets are shown the sender has not sent any weather packets the latest 10 day(s).
| Time | Temp. | Humidity | Pressure | Rain* | Wind** | Luminosity | Snow |
|---|---|---|---|---|---|---|---|
| 1777508101 | 21.11° C | 29% | 1021.7 hPa | - | - | - | - |
| 1777506602 | 21.11° C | 32% | 1021.7 hPa | - | - | - | - |
| 1777504201 | 21.67° C | 28% | 1021.7 hPa | - | - | - | - |
| 1777503907 | 21.67° C | 28% | 1021.7 hPa | - | - | - | - |
| 1777501201 | 22.78° C | 28% | 1022 hPa | - | - | - | - |
| 1777500906 | 22.22° C | 28% | 1022.2 hPa | - | - | - | - |
| 1777500600 | 22.22° C | 29% | 1022.4 hPa | - | - | - | - |
| 1777499701 | 21.11° C | 31% | 1022.4 hPa | - | - | - | - |
| 1777497302 | 21.11° C | 33% | 1022.7 hPa | - | - | - | - |
| 1777496101 | 20.56° C | 34% | 1022.7 hPa | - | - | - | - |
| 1777491300 | 18.89° C | 41% | 1023.4 hPa | - | - | - | - |
| 1777488001 | 17.22° C | 45% | 1024 hPa | - | - | - | - |
| 1777486201 | 15.56° C | 49% | 1024.4 hPa | - | - | - | - |
| 1777485304 | 16.11° C | 49% | 1024.4 hPa | - | - | - | - |
| 1777484411 | 15° C | 52% | 1024.4 hPa | - | - | - | - |
| 1777482301 | 12.78° C | 62% | 1024.4 hPa | - | - | - | - |
| 1777480501 | 10.56° C | 73% | 1024.4 hPa | - | - | - | - |
| 1777478400 | 8.89° C | 80% | 1024.4 hPa | - | - | - | - |
| 1777477206 | 7.78° C | 84% | 1024.4 hPa | - | - | - | - |
| 1777476007 | 6.11° C | 88% | 1024.4 hPa | - | - | - | - |
| 1777473008 | 3.89° C | 95% | 1024.4 hPa | - | - | - | - |
| 1777471203 | 2.78° C | 94% | 1024 hPa | - | - | - | - |
| 1777469411 | 2.22° C | 94% | 1023.7 hPa | - | - | - | - |
| 1777467601 | 2.78° C | 94% | 1023.4 hPa | - | - | - | - |
| 1777466401 | 2.22° C | 93% | 1023 hPa | - | - | - | - |
* Rain since midnight (hover to see other rain measurements)
** Current wind speed in m/s (hover to see current wind gust speed)